sensor_id;sensor_type;location;lat;lon;timestamp;pressure;altitude;pressure_sealevel;temperature;humidity
33697;BME280;20031;43.416;23.232;2024-03-17T00:00:59;100463.63;;;6.13;87.14
33697;BME280;20031;43.416;23.232;2024-03-17T00:03:25;100467.69;;;6.16;86.94
33697;BME280;20031;43.416;23.232;2024-03-17T00:05:58;100467.25;;;6.11;86.78
33697;BME280;20031;43.416;23.232;2024-03-17T00:08:24;100472.66;;;6.08;86.95
33697;BME280;20031;43.416;23.232;2024-03-17T00:10:50;100471.75;;;5.98;86.70
33697;BME280;20031;43.416;23.232;2024-03-17T00:13:16;100471.25;;;5.93;86.88
33697;BME280;20031;43.416;23.232;2024-03-17T00:15:42;100477.16;;;5.84;86.58
33697;BME280;20031;43.416;23.232;2024-03-17T00:18:07;100467.53;;;5.75;86.69
33697;BME280;20031;43.416;23.232;2024-03-17T00:20:34;100472.06;;;5.72;86.58
33697;BME280;20031;43.416;23.232;2024-03-17T00:22:59;100471.72;;;5.65;86.56
33697;BME280;20031;43.416;23.232;2024-03-17T00:25:25;100467.97;;;5.58;86.38
33697;BME280;20031;43.416;23.232;2024-03-17T00:27:50;100469.13;;;5.55;86.89
33697;BME280;20031;43.416;23.232;2024-03-17T00:30:20;100466.22;;;5.48;86.49
33697;BME280;20031;43.416;23.232;2024-03-17T00:32:46;100463.84;;;5.45;86.91
33697;BME280;20031;43.416;23.232;2024-03-17T00:35:12;100459.03;;;5.41;86.81
33697;BME280;20031;43.416;23.232;2024-03-17T00:37:39;100461.84;;;5.38;86.96
33697;BME280;20031;43.416;23.232;2024-03-17T00:40:05;100460.44;;;5.34;86.94
33697;BME280;20031;43.416;23.232;2024-03-17T00:42:31;100458.19;;;5.29;87.22
33697;BME280;20031;43.416;23.232;2024-03-17T00:44:57;100456.34;;;5.31;87.05
33697;BME280;20031;43.416;23.232;2024-03-17T00:47:25;100463.97;;;5.33;87.68
33697;BME280;20031;43.416;23.232;2024-03-17T00:49:50;100465.59;;;5.34;87.73
33697;BME280;20031;43.416;23.232;2024-03-17T00:52:16;100464.78;;;5.33;87.45
33697;BME280;20031;43.416;23.232;2024-03-17T00:54:42;100455.75;;;5.39;88.39
33697;BME280;20031;43.416;23.232;2024-03-17T00:57:08;100458.91;;;5.42;87.89
33697;BME280;20031;43.416;23.232;2024-03-17T00:59:33;100465.84;;;5.42;87.84
33697;BME280;20031;43.416;23.232;2024-03-17T01:01:58;100467.72;;;5.40;87.86
33697;BME280;20031;43.416;23.232;2024-03-17T01:04:24;100465.72;;;5.43;87.58
33697;BME280;20031;43.416;23.232;2024-03-17T01:06:50;100461.38;;;5.44;87.98
33697;BME280;20031;43.416;23.232;2024-03-17T01:09:15;100463.03;;;5.45;87.39
33697;BME280;20031;43.416;23.232;2024-03-17T01:11:40;100469.00;;;5.45;87.78
33697;BME280;20031;43.416;23.232;2024-03-17T01:14:06;100460.22;;;5.48;87.74
33697;BME280;20031;43.416;23.232;2024-03-17T01:16:33;100462.78;;;5.48;87.93
33697;BME280;20031;43.416;23.232;2024-03-17T01:18:59;100468.81;;;5.48;87.54
33697;BME280;20031;43.416;23.232;2024-03-17T01:21:24;100461.88;;;5.49;87.75
33697;BME280;20031;43.416;23.232;2024-03-17T01:23:50;100461.97;;;5.47;88.00
33697;BME280;20031;43.416;23.232;2024-03-17T01:26:15;100463.03;;;5.45;87.91
33697;BME280;20031;43.416;23.232;2024-03-17T01:28:40;100451.28;;;5.41;87.79
33697;BME280;20031;43.416;23.232;2024-03-17T01:31:06;100456.69;;;5.38;87.64
33697;BME280;20031;43.416;23.232;2024-03-17T01:33:32;100453.06;;;5.40;88.05
33697;BME280;20031;43.416;23.232;2024-03-17T01:35:57;100458.91;;;5.42;88.23
33697;BME280;20031;43.416;23.232;2024-03-17T01:38:23;100455.50;;;5.42;88.00
33697;BME280;20031;43.416;23.232;2024-03-17T01:40:48;100451.75;;;5.35;87.74
33697;BME280;20031;43.416;23.232;2024-03-17T01:43:13;100455.25;;;5.34;88.03
33697;BME280;20031;43.416;23.232;2024-03-17T01:45:39;100458.69;;;5.34;88.11
33697;BME280;20031;43.416;23.232;2024-03-17T01:48:10;100461.97;;;5.36;87.81
33697;BME280;20031;43.416;23.232;2024-03-17T01:50:38;100455.25;;;5.34;87.42
33697;BME280;20031;43.416;23.232;2024-03-17T01:53:05;100459.03;;;5.30;87.76
33697;BME280;20031;43.416;23.232;2024-03-17T01:55:36;100459.16;;;5.28;87.81
33697;BME280;20031;43.416;23.232;2024-03-17T01:58:05;100452.91;;;5.31;87.74
33697;BME280;20031;43.416;23.232;2024-03-17T02:00:39;100444.94;;;5.34;87.73
33697;BME280;20031;43.416;23.232;2024-03-17T02:03:08;100445.44;;;5.39;88.53
33697;BME280;20031;43.416;23.232;2024-03-17T02:05:40;100442.59;;;5.42;88.29
33697;BME280;20031;43.416;23.232;2024-03-17T02:08:06;100447.28;;;5.37;87.90
33697;BME280;20031;43.416;23.232;2024-03-17T02:10:35;100439.53;;;5.37;88.04
33697;BME280;20031;43.416;23.232;2024-03-17T02:13:01;100441.44;;;5.35;87.66
33697;BME280;20031;43.416;23.232;2024-03-17T02:15:28;100437.06;;;5.35;87.71
33697;BME280;20031;43.416;23.232;2024-03-17T02:17:54;100433.56;;;5.36;87.48
33697;BME280;20031;43.416;23.232;2024-03-17T02:20:20;100439.06;;;5.32;87.18
33697;BME280;20031;43.416;23.232;2024-03-17T02:22:50;100432.38;;;5.29;87.43
33697;BME280;20031;43.416;23.232;2024-03-17T02:25:15;100435.06;;;5.28;87.43
33697;BME280;20031;43.416;23.232;2024-03-17T02:27:41;100433.66;;;5.24;87.86
33697;BME280;20031;43.416;23.232;2024-03-17T02:30:06;100440.47;;;5.25;87.20
33697;BME280;20031;43.416;23.232;2024-03-17T02:32:35;100437.91;;;5.25;87.49
33697;BME280;20031;43.416;23.232;2024-03-17T02:35:00;100434.75;;;5.21;87.07
33697;BME280;20031;43.416;23.232;2024-03-17T02:37:26;100430.84;;;5.16;87.50
33697;BME280;20031;43.416;23.232;2024-03-17T02:39:52;100436.25;;;5.13;87.40
33697;BME280;20031;43.416;23.232;2024-03-17T02:42:18;100430.34;;;5.11;87.23
33697;BME280;20031;43.416;23.232;2024-03-17T02:44:44;100427.31;;;5.06;87.48
33697;BME280;20031;43.416;23.232;2024-03-17T02:47:11;100428.47;;;5.02;87.20
33697;BME280;20031;43.416;23.232;2024-03-17T02:49:39;100432.22;;;4.98;87.32
33697;BME280;20031;43.416;23.232;2024-03-17T02:52:09;100429.16;;;4.93;87.34
33697;BME280;20031;43.416;23.232;2024-03-17T02:54:35;100435.38;;;4.91;87.09
33697;BME280;20031;43.416;23.232;2024-03-17T02:57:02;100427.06;;;4.87;87.51
33697;BME280;20031;43.416;23.232;2024-03-17T02:59:27;100424.22;;;4.79;87.07
33697;BME280;20031;43.416;23.232;2024-03-17T03:01:53;100424.22;;;4.79;88.03
33697;BME280;20031;43.416;23.232;2024-03-17T03:04:20;100429.47;;;4.78;87.39
33697;BME280;20031;43.416;23.232;2024-03-17T03:06:45;100432.19;;;4.76;87.70
33697;BME280;20031;43.416;23.232;2024-03-17T03:09:11;100430.41;;;4.77;87.62
33697;BME280;20031;43.416;23.232;2024-03-17T03:11:44;100429.81;;;4.73;87.82
33697;BME280;20031;43.416;23.232;2024-03-17T03:14:09;100431.44;;;4.74;87.70
33697;BME280;20031;43.416;23.232;2024-03-17T03:16:35;100436.72;;;4.73;87.72
33697;BME280;20031;43.416;23.232;2024-03-17T03:19:00;100437.69;;;4.72;88.11
33697;BME280;20031;43.416;23.232;2024-03-17T03:21:26;100433.44;;;4.71;87.93
33697;BME280;20031;43.416;23.232;2024-03-17T03:23:51;100430.28;;;4.67;88.05
33697;BME280;20031;43.416;23.232;2024-03-17T03:26:17;100429.56;;;4.65;88.48
33697;BME280;20031;43.416;23.232;2024-03-17T03:28:43;100432.34;;;4.62;88.56
33697;BME280;20031;43.416;23.232;2024-03-17T03:31:13;100434.13;;;4.62;88.17
33697;BME280;20031;43.416;23.232;2024-03-17T03:33:40;100432.34;;;4.62;88.67
33697;BME280;20031;43.416;23.232;2024-03-17T03:36:10;100433.28;;;4.61;88.70
33697;BME280;20031;43.416;23.232;2024-03-17T03:38:35;100438.66;;;4.58;88.26
33697;BME280;20031;43.416;23.232;2024-03-17T03:41:12;100440.78;;;4.54;88.08
33697;BME280;20031;43.416;23.232;2024-03-17T03:43:38;100447.66;;;4.53;88.63
33697;BME280;20031;43.416;23.232;2024-03-17T03:46:04;100454.69;;;4.51;88.46
33697;BME280;20031;43.416;23.232;2024-03-17T03:48:30;100457.28;;;4.51;88.25
33697;BME280;20031;43.416;23.232;2024-03-17T03:50:55;100449.66;;;4.50;88.72
33697;BME280;20031;43.416;23.232;2024-03-17T03:53:21;100457.28;;;4.51;88.69
33697;BME280;20031;43.416;23.232;2024-03-17T03:55:47;100455.63;;;4.50;88.53
33697;BME280;20031;43.416;23.232;2024-03-17T03:58:14;100455.50;;;4.52;88.93
33697;BME280;20031;43.416;23.232;2024-03-17T04:00:40;100464.09;;;4.52;88.58
33697;BME280;20031;43.416;23.232;2024-03-17T04:03:05;100460.78;;;4.50;88.82
33697;BME280;20031;43.416;23.232;2024-03-17T04:05:31;100462.56;;;4.50;89.30
33697;BME280;20031;43.416;23.232;2024-03-17T04:07:57;100463.03;;;4.54;89.31
33697;BME280;20031;43.416;23.232;2024-03-17T04:10:23;100468.06;;;4.56;88.96
33697;BME280;20031;43.416;23.232;2024-03-17T04:12:50;100473.16;;;4.57;89.07
33697;BME280;20031;43.416;23.232;2024-03-17T04:15:15;100470.97;;;4.52;88.68
33697;BME280;20031;43.416;23.232;2024-03-17T04:17:41;100467.47;;;4.53;89.07
33697;BME280;20031;43.416;23.232;2024-03-17T04:20:10;100475.44;;;4.50;88.60
33697;BME280;20031;43.416;23.232;2024-03-17T04:22:41;100473.69;;;4.50;89.12
33697;BME280;20031;43.416;23.232;2024-03-17T04:25:08;100476.03;;;4.53;89.00
33697;BME280;20031;43.416;23.232;2024-03-17T04:27:34;100467.38;;;4.54;89.39
33697;BME280;20031;43.416;23.232;2024-03-17T04:30:00;100478.31;;;4.57;89.05
33697;BME280;20031;43.416;23.232;2024-03-17T04:32:26;100479.34;;;4.55;89.50
33697;BME280;20031;43.416;23.232;2024-03-17T04:34:56;100478.59;;;4.53;88.97
33697;BME280;20031;43.416;23.232;2024-03-17T04:37:21;100482.63;;;4.57;88.94
33697;BME280;20031;43.416;23.232;2024-03-17T04:39:47;100480.88;;;4.57;89.49
33697;BME280;20031;43.416;23.232;2024-03-17T04:42:14;100486.50;;;4.62;88.97
33697;BME280;20031;43.416;23.232;2024-03-17T04:44:40;100487.84;;;4.68;89.85
33697;BME280;20031;43.416;23.232;2024-03-17T04:47:06;100484.00;;;4.73;89.62
33697;BME280;20031;43.416;23.232;2024-03-17T04:49:43;100486.81;;;4.81;89.57
33697;BME280;20031;43.416;23.232;2024-03-17T04:52:10;100485.44;;;4.88;89.67
33697;BME280;20031;43.416;23.232;2024-03-17T04:54:36;100484.06;;;4.95;89.50
33697;BME280;20031;43.416;23.232;2024-03-17T04:57:02;100484.44;;;5.02;89.26
33697;BME280;20031;43.416;23.232;2024-03-17T04:59:28;100486.91;;;5.03;89.09
33697;BME280;20031;43.416;23.232;2024-03-17T05:01:53;100494.41;;;5.06;88.64
33697;BME280;20031;43.416;23.232;2024-03-17T05:04:19;100501.47;;;5.15;89.35
33697;BME280;20031;43.416;23.232;2024-03-17T05:06:45;100496.34;;;5.26;89.82
33697;BME280;20031;43.416;23.232;2024-03-17T05:09:14;100503.41;;;5.35;89.35
33697;BME280;20031;43.416;23.232;2024-03-17T05:11:40;100502.94;;;5.41;88.93
33697;BME280;20031;43.416;23.232;2024-03-17T05:14:06;100503.53;;;5.44;89.15
33697;BME280;20031;43.416;23.232;2024-03-17T05:16:31;100507.63;;;5.47;88.73
33697;BME280;20031;43.416;23.232;2024-03-17T05:18:57;100503.75;;;5.52;88.91
33697;BME280;20031;43.416;23.232;2024-03-17T05:21:22;100494.03;;;5.56;88.29
33697;BME280;20031;43.416;23.232;2024-03-17T05:23:49;100501.56;;;5.69;89.07
33697;BME280;20031;43.416;23.232;2024-03-17T05:26:15;100496.41;;;5.80;88.78
33697;BME280;20031;43.416;23.232;2024-03-17T05:28:40;100498.19;;;5.91;88.71
33697;BME280;20031;43.416;23.232;2024-03-17T05:31:05;100499.34;;;5.98;88.40
33697;BME280;20031;43.416;23.232;2024-03-17T05:33:31;100497.47;;;6.00;88.75
33697;BME280;20031;43.416;23.232;2024-03-17T05:35:58;100500.50;;;6.05;88.70
33697;BME280;20031;43.416;23.232;2024-03-17T05:38:25;100496.06;;;6.07;88.24
33697;BME280;20031;43.416;23.232;2024-03-17T05:43:20;100497.47;;;6.10;88.23
33697;BME280;20031;43.416;23.232;2024-03-17T05:45:46;100489.59;;;6.12;87.72
33697;BME280;20031;43.416;23.232;2024-03-17T05:48:11;100495.22;;;6.17;87.86
33697;BME280;20031;43.416;23.232;2024-03-17T05:50:37;100487.44;;;6.17;87.65
33697;BME280;20031;43.416;23.232;2024-03-17T05:53:02;100495.81;;;6.20;87.46
33697;BME280;20031;43.416;23.232;2024-03-17T05:55:28;100492.84;;;6.25;87.68
33697;BME280;20031;43.416;23.232;2024-03-17T05:57:53;100496.59;;;6.32;87.83
33697;BME280;20031;43.416;23.232;2024-03-17T06:00:19;100494.22;;;6.40;87.45
33697;BME280;20031;43.416;23.232;2024-03-17T06:02:44;100501.22;;;6.49;87.67
33697;BME280;20031;43.416;23.232;2024-03-17T06:05:11;100497.47;;;6.53;87.29
33697;BME280;20031;43.416;23.232;2024-03-17T06:07:39;100500.53;;;6.58;87.58
33697;BME280;20031;43.416;23.232;2024-03-17T06:10:06;100500.03;;;6.63;87.41
33697;BME280;20031;43.416;23.232;2024-03-17T06:12:31;100506.34;;;6.70;87.39
33697;BME280;20031;43.416;23.232;2024-03-17T06:14:57;100509.13;;;6.78;87.29
33697;BME280;20031;43.416;23.232;2024-03-17T06:17:22;100515.00;;;6.91;87.29
33697;BME280;20031;43.416;23.232;2024-03-17T06:19:48;100509.09;;;7.09;87.23
33697;BME280;20031;43.416;23.232;2024-03-17T06:22:13;100514.19;;;7.31;86.85
33697;BME280;20031;43.416;23.232;2024-03-17T06:24:38;100518.78;;;7.48;86.68
33697;BME280;20031;43.416;23.232;2024-03-17T06:27:04;100516.56;;;7.64;86.29
33697;BME280;20031;43.416;23.232;2024-03-17T06:29:32;100525.75;;;7.77;86.20
33697;BME280;20031;43.416;23.232;2024-03-17T06:31:58;100530.72;;;7.90;85.98
33697;BME280;20031;43.416;23.232;2024-03-17T06:34:23;100532.31;;;8.11;86.04
33697;BME280;20031;43.416;23.232;2024-03-17T06:36:48;100526.69;;;8.36;86.07
33697;BME280;20031;43.416;23.232;2024-03-17T06:39:14;100524.66;;;8.58;85.09
33697;BME280;20031;43.416;23.232;2024-03-17T06:41:42;100531.66;;;8.76;85.09
33697;BME280;20031;43.416;23.232;2024-03-17T06:44:08;100534.16;;;8.87;84.51
33697;BME280;20031;43.416;23.232;2024-03-17T06:46:33;100541.81;;;8.98;83.88
33697;BME280;20031;43.416;23.232;2024-03-17T06:48:59;100542.75;;;8.97;82.79
33697;BME280;20031;43.416;23.232;2024-03-17T06:51:25;100539.75;;;9.02;83.02
33697;BME280;20031;43.416;23.232;2024-03-17T06:53:50;100543.84;;;9.04;82.35
33697;BME280;20031;43.416;23.232;2024-03-17T06:56:16;100545.50;;;9.05;82.17
33697;BME280;20031;43.416;23.232;2024-03-17T06:58:41;100543.72;;;9.06;81.70
33697;BME280;20031;43.416;23.232;2024-03-17T07:01:07;100543.16;;;9.12;81.30
33697;BME280;20031;43.416;23.232;2024-03-17T07:03:33;100543.72;;;9.15;81.00
33697;BME280;20031;43.416;23.232;2024-03-17T07:06:00;100549.75;;;9.25;80.60
33697;BME280;20031;43.416;23.232;2024-03-17T07:08:29;100550.41;;;9.27;80.25
33697;BME280;20031;43.416;23.232;2024-03-17T07:11:05;100553.69;;;9.29;79.85
33697;BME280;20031;43.416;23.232;2024-03-17T07:13:32;100565.47;;;9.23;79.69
33697;BME280;20031;43.416;23.232;2024-03-17T07:15:59;100558.47;;;9.24;79.77
33697;BME280;20031;43.416;23.232;2024-03-17T07:18:26;100555.03;;;9.33;80.04
33697;BME280;20031;43.416;23.232;2024-03-17T07:20:53;100557.38;;;9.36;79.79
33697;BME280;20031;43.416;23.232;2024-03-17T07:23:18;100549.56;;;9.36;80.02
33697;BME280;20031;43.416;23.232;2024-03-17T07:25:54;100552.16;;;9.36;79.74
33697;BME280;20031;43.416;23.232;2024-03-17T07:28:20;100554.19;;;9.42;79.86
33697;BME280;20031;43.416;23.232;2024-03-17T07:30:49;100551.34;;;9.45;79.98
33697;BME280;20031;43.416;23.232;2024-03-17T07:33:15;100548.44;;;9.57;79.84
33697;BME280;20031;43.416;23.232;2024-03-17T07:36:07;100552.91;;;9.74;80.30
33697;BME280;20031;43.416;23.232;2024-03-17T07:38:34;100542.72;;;9.90;79.90
33697;BME280;20031;43.416;23.232;2024-03-17T07:41:05;100545.75;;;10.04;80.04
33697;BME280;20031;43.416;23.232;2024-03-17T07:43:33;100545.94;;;10.20;79.69
33697;BME280;20031;43.416;23.232;2024-03-17T07:46:09;100538.50;;;10.25;78.86
33697;BME280;20031;43.416;23.232;2024-03-17T07:48:39;100547.81;;;10.27;79.03
33697;BME280;20031;43.416;23.232;2024-03-17T07:51:06;100546.78;;;10.38;78.64
33697;BME280;20031;43.416;23.232;2024-03-17T07:53:34;100546.72;;;10.57;78.89
33697;BME280;20031;43.416;23.232;2024-03-17T07:56:01;100541.06;;;10.78;78.57
33697;BME280;20031;43.416;23.232;2024-03-17T07:58:27;100535.16;;;11.28;78.93
33697;BME280;20031;43.416;23.232;2024-03-17T08:00:56;100531.50;;;11.81;77.81
33697;BME280;20031;43.416;23.232;2024-03-17T08:03:25;100524.88;;;12.28;77.25
33697;BME280;20031;43.416;23.232;2024-03-17T08:05:50;100524.50;;;12.80;76.69
33697;BME280;20031;43.416;23.232;2024-03-17T08:08:16;100512.81;;;13.08;74.14
33697;BME280;20031;43.416;23.232;2024-03-17T08:10:42;100525.41;;;13.20;72.93
33697;BME280;20031;43.416;23.232;2024-03-17T08:13:08;100525.22;;;13.29;72.37
33697;BME280;20031;43.416;23.232;2024-03-17T08:15:36;100524.75;;;13.42;71.13
33697;BME280;20031;43.416;23.232;2024-03-17T08:18:02;100518.84;;;13.48;70.83
33697;BME280;20031;43.416;23.232;2024-03-17T08:20:29;100519.44;;;13.74;70.52
33697;BME280;20031;43.416;23.232;2024-03-17T08:22:54;100514.03;;;13.83;69.67
33697;BME280;20031;43.416;23.232;2024-03-17T08:25:20;100511.88;;;13.94;68.98
33697;BME280;20031;43.416;23.232;2024-03-17T08:27:45;100505.38;;;13.82;67.82
33697;BME280;20031;43.416;23.232;2024-03-17T08:30:12;100502.13;;;13.73;67.75
33697;BME280;20031;43.416;23.232;2024-03-17T08:32:38;100502.75;;;13.82;68.10
33697;BME280;20031;43.416;23.232;2024-03-17T08:35:04;100497.84;;;13.79;67.63
33697;BME280;20031;43.416;23.232;2024-03-17T08:37:31;100494.84;;;13.90;67.13
33697;BME280;20031;43.416;23.232;2024-03-17T08:39:57;100495.66;;;14.07;67.20
33697;BME280;20031;43.416;23.232;2024-03-17T08:42:22;100485.38;;;14.35;67.27
33697;BME280;20031;43.416;23.232;2024-03-17T08:44:47;100483.78;;;14.57;66.55
33697;BME280;20031;43.416;23.232;2024-03-17T08:47:13;100485.13;;;14.75;65.68
33697;BME280;20031;43.416;23.232;2024-03-17T08:49:38;100477.31;;;14.89;65.08
33697;BME280;20031;43.416;23.232;2024-03-17T08:52:04;100488.09;;;14.94;64.52
33697;BME280;20031;43.416;23.232;2024-03-17T08:54:29;100475.94;;;15.01;63.84
33697;BME280;20031;43.416;23.232;2024-03-17T08:56:55;100481.97;;;15.02;63.29
33697;BME280;20031;43.416;23.232;2024-03-17T08:59:20;100480.25;;;14.94;62.43
33697;BME280;20031;43.416;23.232;2024-03-17T09:01:46;100473.94;;;15.03;62.20
33697;BME280;20031;43.416;23.232;2024-03-17T09:04:11;100473.53;;;15.14;61.95
33697;BME280;20031;43.416;23.232;2024-03-17T09:06:37;100471.75;;;15.29;62.02
33697;BME280;20031;43.416;23.232;2024-03-17T09:09:02;100465.47;;;15.52;62.26
33697;BME280;20031;43.416;23.232;2024-03-17T09:11:28;100465.75;;;15.72;60.93
33697;BME280;20031;43.416;23.232;2024-03-17T09:13:54;100457.59;;;15.95;60.08
33697;BME280;20031;43.416;23.232;2024-03-17T09:16:20;100455.41;;;15.99;58.69
33697;BME280;20031;43.416;23.232;2024-03-17T09:18:47;100451.88;;;15.78;58.70
33697;BME280;20031;43.416;23.232;2024-03-17T09:21:14;100452.50;;;15.94;58.81
33697;BME280;20031;43.416;23.232;2024-03-17T09:23:41;100454.31;;;15.79;57.69
33697;BME280;20031;43.416;23.232;2024-03-17T09:26:08;100448.63;;;15.90;57.92
33697;BME280;20031;43.416;23.232;2024-03-17T09:28:34;100446.16;;;16.03;57.65
33697;BME280;20031;43.416;23.232;2024-03-17T09:31:00;100455.75;;;16.10;56.29
33697;BME280;20031;43.416;23.232;2024-03-17T09:33:27;100464.53;;;16.17;56.24
33697;BME280;20031;43.416;23.232;2024-03-17T09:38:22;100444.56;;;16.37;56.64
33697;BME280;20031;43.416;23.232;2024-03-17T09:40:48;100439.97;;;16.60;56.04
33697;BME280;20031;43.416;23.232;2024-03-17T09:43:25;100433.34;;;16.85;56.02
33697;BME280;20031;43.416;23.232;2024-03-17T09:45:51;100436.44;;;17.15;55.16
33697;BME280;20031;43.416;23.232;2024-03-17T09:48:24;100435.88;;;17.47;53.51
33697;BME280;20031;43.416;23.232;2024-03-17T09:50:50;100429.84;;;17.53;52.73
33697;BME280;20031;43.416;23.232;2024-03-17T09:53:29;100433.19;;;17.68;52.45
33697;BME280;20031;43.416;23.232;2024-03-17T09:58:26;100434.78;;;17.69;51.48
33697;BME280;20031;43.416;23.232;2024-03-17T10:00:52;100434.38;;;17.65;52.29
33697;BME280;20031;43.416;23.232;2024-03-17T10:03:39;100437.25;;;17.43;51.22
33697;BME280;20031;43.416;23.232;2024-03-17T10:06:09;100437.47;;;17.21;51.45
33697;BME280;20031;43.416;23.232;2024-03-17T10:11:09;100435.81;;;16.92;52.04
33697;BME280;20031;43.416;23.232;2024-03-17T10:13:36;100427.81;;;16.80;52.19
33697;BME280;20031;43.416;23.232;2024-03-17T10:16:01;100416.88;;;16.76;52.31
33697;BME280;20031;43.416;23.232;2024-03-17T10:18:27;100418.31;;;16.79;53.27
33697;BME280;20031;43.416;23.232;2024-03-17T10:20:52;100427.56;;;16.95;52.89
33697;BME280;20031;43.416;23.232;2024-03-17T10:23:22;100427.91;;;16.92;52.56
33697;BME280;20031;43.416;23.232;2024-03-17T10:25:47;100424.78;;;17.03;52.73
33697;BME280;20031;43.416;23.232;2024-03-17T10:28:15;100426.91;;;17.14;52.51
33697;BME280;20031;43.416;23.232;2024-03-17T10:30:41;100424.81;;;17.31;52.20
33697;BME280;20031;43.416;23.232;2024-03-17T10:33:22;100425.94;;;17.49;51.63
33697;BME280;20031;43.416;23.232;2024-03-17T10:35:50;100427.69;;;17.36;51.42
33697;BME280;20031;43.416;23.232;2024-03-17T10:38:16;100417.56;;;17.33;51.30
33697;BME280;20031;43.416;23.232;2024-03-17T10:40:42;100428.50;;;17.36;50.15
33697;BME280;20031;43.416;23.232;2024-03-17T10:43:10;100427.63;;;17.29;48.98
33697;BME280;20031;43.416;23.232;2024-03-17T10:45:36;100428.19;;;17.45;48.98
33697;BME280;20031;43.416;23.232;2024-03-17T10:48:07;100416.94;;;17.64;47.78
33697;BME280;20031;43.416;23.232;2024-03-17T10:50:38;100411.91;;;17.76;47.63
33697;BME280;20031;43.416;23.232;2024-03-17T10:53:05;100410.75;;;17.85;46.98
33697;BME280;20031;43.416;23.232;2024-03-17T10:55:42;100412.38;;;17.86;46.04
33697;BME280;20031;43.416;23.232;2024-03-17T11:00:44;100418.09;;;17.55;46.02
33697;BME280;20031;43.416;23.232;2024-03-17T11:03:13;100414.56;;;17.42;46.42
33697;BME280;20031;43.416;23.232;2024-03-17T11:05:39;100411.47;;;17.32;46.54
33697;BME280;20031;43.416;23.232;2024-03-17T11:08:05;100403.72;;;17.24;46.91
33697;BME280;20031;43.416;23.232;2024-03-17T11:10:34;100402.88;;;17.24;47.49
33697;BME280;20031;43.416;23.232;2024-03-17T11:13:01;100399.13;;;17.12;47.03
33697;BME280;20031;43.416;23.232;2024-03-17T11:20:34;100404.38;;;16.85;48.09
33697;BME280;20031;43.416;23.232;2024-03-17T11:23:01;100401.56;;;16.86;48.46
33697;BME280;20031;43.416;23.232;2024-03-17T11:30:57;100393.19;;;16.55;49.56
33697;BME280;20031;43.416;23.232;2024-03-17T11:47:07;100377.16;;;16.30;51.38
33697;BME280;20031;43.416;23.232;2024-03-17T11:49:36;100385.31;;;16.35;51.39
33697;BME280;20031;43.416;23.232;2024-03-17T11:52:12;100375.41;;;16.36;51.02
33697;BME280;20031;43.416;23.232;2024-03-17T11:54:43;100382.13;;;16.39;51.68
33697;BME280;20031;43.416;23.232;2024-03-17T11:57:10;100378.72;;;16.45;51.22
33697;BME280;20031;43.416;23.232;2024-03-17T11:59:37;100368.03;;;16.46;50.96
33697;BME280;20031;43.416;23.232;2024-03-17T12:02:10;100368.75;;;16.61;50.98
33697;BME280;20031;43.416;23.232;2024-03-17T12:04:39;100366.88;;;16.76;50.59
33697;BME280;20031;43.416;23.232;2024-03-17T12:07:11;100356.38;;;16.83;50.74
33697;BME280;20031;43.416;23.232;2024-03-17T12:09:37;100361.50;;;17.18;49.89
33697;BME280;20031;43.416;23.232;2024-03-17T12:12:10;100345.28;;;17.35;49.46
33697;BME280;20031;43.416;23.232;2024-03-17T12:14:37;100345.16;;;17.56;48.82
33697;BME280;20031;43.416;23.232;2024-03-17T12:17:04;100339.38;;;17.80;48.86
33697;BME280;20031;43.416;23.232;2024-03-17T12:19:30;100341.66;;;17.95;48.10
33697;BME280;20031;43.416;23.232;2024-03-17T12:21:57;100333.19;;;18.06;47.77
33697;BME280;20031;43.416;23.232;2024-03-17T12:24:31;100331.16;;;18.02;47.29
33697;BME280;20031;43.416;23.232;2024-03-17T12:26:58;100325.28;;;18.06;47.82
33697;BME280;20031;43.416;23.232;2024-03-17T12:29:33;100320.19;;;18.11;47.60
33697;BME280;20031;43.416;23.232;2024-03-17T12:32:05;100320.47;;;18.16;47.28
33697;BME280;20031;43.416;23.232;2024-03-17T12:34:31;100322.44;;;18.08;47.33
33697;BME280;20031;43.416;23.232;2024-03-17T12:36:58;100321.19;;;18.04;47.76
33697;BME280;20031;43.416;23.232;2024-03-17T12:39:33;100319.78;;;17.95;48.18
33697;BME280;20031;43.416;23.232;2024-03-17T12:42:15;100316.06;;;17.83;48.32
33697;BME280;20031;43.416;23.232;2024-03-17T12:44:50;100313.00;;;17.67;48.75
33697;BME280;20031;43.416;23.232;2024-03-17T12:47:16;100316.41;;;17.61;48.58
33697;BME280;20031;43.416;23.232;2024-03-17T12:49:46;100316.13;;;17.43;49.06
33697;BME280;20031;43.416;23.232;2024-03-17T12:57:45;100312.88;;;17.14;51.13
33697;BME280;20031;43.416;23.232;2024-03-17T13:00:29;100316.06;;;17.30;51.23
33697;BME280;20031;43.416;23.232;2024-03-17T13:02:58;100314.13;;;17.45;50.48
33697;BME280;20031;43.416;23.232;2024-03-17T13:05:24;100308.25;;;17.49;50.82
33697;BME280;20031;43.416;23.232;2024-03-17T13:07:50;100299.56;;;17.55;50.82
33697;BME280;20031;43.416;23.232;2024-03-17T13:10:19;100294.25;;;17.49;50.55
33697;BME280;20031;43.416;23.232;2024-03-17T13:12:46;100305.53;;;17.30;50.95
33697;BME280;20031;43.416;23.232;2024-03-17T13:15:13;100294.09;;;17.17;51.27
33697;BME280;20031;43.416;23.232;2024-03-17T13:17:40;100286.13;;;17.04;51.60
33697;BME280;20031;43.416;23.232;2024-03-17T13:20:08;100289.88;;;16.88;52.03
33697;BME280;20031;43.416;23.232;2024-03-17T13:22:37;100288.16;;;16.75;52.76
33697;BME280;20031;43.416;23.232;2024-03-17T13:25:04;100296.56;;;16.64;53.16
33697;BME280;20031;43.416;23.232;2024-03-17T13:27:31;100299.69;;;16.53;53.71